createdAt,value
2023-01-19T00:00:21.067Z,12.30
2023-01-19T00:02:48.076Z,13.50
2023-01-19T00:05:14.818Z,13.32
2023-01-19T00:07:41.869Z,12.32
2023-01-19T00:10:09.580Z,13.05
2023-01-19T00:12:36.246Z,13.52
2023-01-19T00:15:02.870Z,12.40
2023-01-19T00:17:29.292Z,13.02
2023-01-19T00:19:55.759Z,13.55
2023-01-19T00:22:22.175Z,12.55
2023-01-19T00:24:48.632Z,12.02
2023-01-19T00:27:15.028Z,13.02
2023-01-19T00:29:41.452Z,12.82
2023-01-19T00:32:08.071Z,13.63
2023-01-19T00:34:39.579Z,13.23
2023-01-19T00:37:07.345Z,12.93
2023-01-19T00:39:33.767Z,13.32
2023-01-19T00:42:18.889Z,12.25
2023-01-19T00:44:45.292Z,12.30
2023-01-19T00:47:11.682Z,11.82
2023-01-19T00:49:38.135Z,12.38
2023-01-19T00:52:04.826Z,10.95
2023-01-19T00:54:31.226Z,11.50
2023-01-19T00:56:57.709Z,11.23
2023-01-19T00:59:25.746Z,11.40
2023-01-19T01:01:52.280Z,11.35
2023-01-19T01:04:18.795Z,11.68
2023-01-19T01:06:45.206Z,11.15
2023-01-19T01:09:14.475Z,12.75
2023-01-19T01:11:42.822Z,11.50
2023-01-19T01:14:11.290Z,10.73
2023-01-19T01:16:38.174Z,11.50
2023-01-19T01:19:04.717Z,11.05
2023-01-19T01:21:31.317Z,11.30
2023-01-19T01:23:57.712Z,11.30
2023-01-19T01:26:25.895Z,10.63
2023-01-19T01:28:53.588Z,10.63
2023-01-19T01:31:20.139Z,10.98
2023-01-19T01:33:46.618Z,10.65
2023-01-19T01:36:13.020Z,12.10
2023-01-19T01:38:40.682Z,12.32
2023-01-19T01:41:08.317Z,12.32
2023-01-19T01:43:58.165Z,10.43
2023-01-19T01:46:26.862Z,11.43
2023-01-19T01:49:13.336Z,11.63
2023-01-19T01:51:47.169Z,10.35
2023-01-19T01:54:23.110Z,10.80
2023-01-19T01:56:56.860Z,11.68
2023-01-19T01:59:27.979Z,11.35
2023-01-19T02:02:18.494Z,11.85
2023-01-19T02:04:51.481Z,11.45
2023-01-19T02:07:45.405Z,11.02
2023-01-19T02:10:30.542Z,11.50
2023-01-19T02:13:16.113Z,11.40
2023-01-19T02:15:43.739Z,11.60
2023-01-19T02:18:10.820Z,12.10
2023-01-19T02:30:00.967Z,10.82
2023-01-19T02:32:28.090Z,11.02
2023-01-19T02:34:55.049Z,11.48
2023-01-19T02:37:21.963Z,12.95
2023-01-19T02:39:54.613Z,10.98
2023-01-19T02:42:29.352Z,12.65
2023-01-19T02:44:57.469Z,11.68
2023-01-19T02:47:24.309Z,12.73
2023-01-19T02:49:58.062Z,11.77
2023-01-19T02:52:25.419Z,11.43
2023-01-19T02:55:18.428Z,11.73
2023-01-19T02:57:58.600Z,10.73
2023-01-19T03:00:36.620Z,12.33
2023-01-19T03:03:23.259Z,12.23
2023-01-19T03:05:57.331Z,10.98
2023-01-19T03:08:38.702Z,12.35
2023-01-19T03:11:12.576Z,11.45
2023-01-19T03:13:50.424Z,11.65
2023-01-19T03:16:24.305Z,11.68
2023-01-19T03:18:55.370Z,12.65
2023-01-19T03:23:51.135Z,11.25
2023-01-19T03:26:27.225Z,12.52
2023-01-19T03:28:56.343Z,13.57
2023-01-19T03:31:26.092Z,12.77
2023-01-19T03:34:00.812Z,13.52
2023-01-19T03:36:35.903Z,12.50
2023-01-19T03:39:04.912Z,12.88
2023-01-19T03:41:34.248Z,13.20
2023-01-19T03:44:01.313Z,14.07
2023-01-19T03:46:28.730Z,14.52
2023-01-19T03:48:55.207Z,13.60
2023-01-19T03:51:22.009Z,14.60
2023-01-19T03:53:49.977Z,13.30
2023-01-19T03:56:24.866Z,13.93
2023-01-19T03:58:51.764Z,14.18
2023-01-19T04:01:22.722Z,14.23
2023-01-19T04:03:50.448Z,15.02
2023-01-19T04:06:17.540Z,14.90
2023-01-19T04:08:43.991Z,15.40
2023-01-19T04:11:10.391Z,14.02
2023-01-19T04:13:36.808Z,15.77
2023-01-19T04:16:04.602Z,16.90
2023-01-19T04:18:33.911Z,17.50
2023-01-19T04:21:06.774Z,16.60
2023-01-19T04:23:33.791Z,15.40
2023-01-19T04:26:01.773Z,15.13
2023-01-19T04:28:28.267Z,15.07
2023-01-19T04:30:54.760Z,15.35
2023-01-19T04:33:22.482Z,16.52
2023-01-19T04:35:51.541Z,17.17
2023-01-19T04:38:19.972Z,17.08
2023-01-19T04:40:47.042Z,15.80
2023-01-19T04:43:14.216Z,16.83
2023-01-19T04:45:40.884Z,17.15
2023-01-19T04:48:07.272Z,17.52
2023-01-19T04:50:33.675Z,18.42
2023-01-19T04:53:01.127Z,18.02
2023-01-19T04:55:28.031Z,17.23
2023-01-19T04:57:54.424Z,16.75
2023-01-19T05:00:21.524Z,18.63
2023-01-19T05:02:47.982Z,17.13
2023-01-19T05:05:14.412Z,17.98
2023-01-19T05:07:40.885Z,17.95
2023-01-19T05:10:07.988Z,16.48
2023-01-19T05:12:34.415Z,18.25
2023-01-19T05:15:01.784Z,17.17
2023-01-19T05:17:28.261Z,17.05
2023-01-19T05:19:54.664Z,17.23
2023-01-19T05:22:21.109Z,17.05
2023-01-19T05:24:47.518Z,16.67
2023-01-19T05:27:13.951Z,15.82
2023-01-19T05:29:40.335Z,16.70
2023-01-19T05:32:06.790Z,16.80
2023-01-19T05:34:33.206Z,16.75
2023-01-19T05:36:59.595Z,18.00
2023-01-19T05:39:26.710Z,16.85
2023-01-19T05:41:53.123Z,16.80
2023-01-19T05:44:19.515Z,17.23
2023-01-19T05:46:46.107Z,17.35
2023-01-19T05:49:12.848Z,17.17
2023-01-19T05:51:40.392Z,16.42
2023-01-19T05:54:07.996Z,17.92
2023-01-19T05:56:35.517Z,17.10
2023-01-19T05:59:02.273Z,16.75
2023-01-19T06:01:28.814Z,17.10
2023-01-19T06:03:55.390Z,17.58
2023-01-19T06:06:21.798Z,16.65
2023-01-19T06:08:48.217Z,16.50
2023-01-19T06:11:14.667Z,16.85
2023-01-19T06:13:42.156Z,16.08
2023-01-19T06:16:09.207Z,16.15
2023-01-19T06:18:35.907Z,17.52
2023-01-19T06:21:09.470Z,16.25
2023-01-19T06:23:36.075Z,18.38
2023-01-19T06:26:03.736Z,14.98
2023-01-19T06:28:30.309Z,16.38
2023-01-19T06:30:57.177Z,16.52
2023-01-19T06:33:24.551Z,16.15
2023-01-19T06:35:51.433Z,16.90
2023-01-19T06:38:18.574Z,16.02
2023-01-19T06:40:45.987Z,15.82
2023-01-19T06:43:13.556Z,15.90
2023-01-19T06:45:39.971Z,17.23
2023-01-19T06:48:06.421Z,17.08
2023-01-19T06:50:32.856Z,16.63
2023-01-19T06:52:59.602Z,17.95
2023-01-19T06:55:27.924Z,16.48
2023-01-19T06:57:59.110Z,16.10
2023-01-19T07:00:25.948Z,15.95
2023-01-19T07:02:52.719Z,16.10
2023-01-19T07:05:19.119Z,16.17
2023-01-19T07:07:51.911Z,16.05
2023-01-19T07:10:18.347Z,15.55
2023-01-19T07:12:47.201Z,15.85
2023-01-19T07:15:15.406Z,15.95
2023-01-19T07:17:42.212Z,15.82
2023-01-19T07:20:15.592Z,16.20
2023-01-19T07:22:46.629Z,15.73
2023-01-19T07:27:40.515Z,14.23
2023-01-19T07:30:08.267Z,14.75
2023-01-19T07:32:34.836Z,15.95
2023-01-19T07:35:01.199Z,15.38
2023-01-19T07:37:27.593Z,15.98
2023-01-19T07:39:54.072Z,14.45
2023-01-19T07:42:20.642Z,15.18
2023-01-19T07:44:47.037Z,13.63
2023-01-19T07:47:13.620Z,14.70
2023-01-19T07:49:40.185Z,15.50
2023-01-19T07:52:06.758Z,14.65
2023-01-19T07:54:33.524Z,14.75
2023-01-19T07:57:03.352Z,13.77
2023-01-19T07:59:31.037Z,14.52
2023-01-19T08:01:59.313Z,14.25
2023-01-19T08:04:27.257Z,13.60
2023-01-19T08:06:54.131Z,14.52
2023-01-19T08:09:20.880Z,14.27
2023-01-19T08:11:47.299Z,12.63
2023-01-19T08:14:13.760Z,14.00
2023-01-19T08:16:40.223Z,13.75
2023-01-19T08:19:06.675Z,13.98
2023-01-19T08:21:33.339Z,11.90
2023-01-19T08:23:59.776Z,11.25
2023-01-19T08:26:33.822Z,13.27
2023-01-19T08:29:05.446Z,12.30
2023-01-19T08:31:32.193Z,11.95
2023-01-19T08:33:58.693Z,12.45
2023-01-19T08:36:25.199Z,12.45
2023-01-19T08:38:51.836Z,11.43
2023-01-19T08:41:18.316Z,10.85
2023-01-19T08:43:45.440Z,11.50
2023-01-19T08:46:12.611Z,12.30
2023-01-19T08:48:40.028Z,12.57
2023-01-19T08:51:06.573Z,12.00
2023-01-19T08:53:32.993Z,12.40
2023-01-19T08:56:02.429Z,12.93
2023-01-19T08:58:28.989Z,11.07
2023-01-19T09:00:55.659Z,10.60
2023-01-19T09:03:22.770Z,11.05
2023-01-19T09:05:49.453Z,10.23
2023-01-19T09:08:16.432Z,10.77
2023-01-19T09:10:48.424Z,10.10
2023-01-19T09:13:15.620Z,11.73
2023-01-19T09:15:43.163Z,11.73
2023-01-19T09:18:13.961Z,10.30
2023-01-19T09:20:42.716Z,11.45
2023-01-19T09:23:13.798Z,11.00
2023-01-19T09:28:09.460Z,11.20
2023-01-19T09:30:39.185Z,10.60
2023-01-19T09:33:12.996Z,9.98
2023-01-19T09:35:39.839Z,10.68
2023-01-19T09:38:08.803Z,10.32
2023-01-19T09:40:37.016Z,10.20
2023-01-19T09:43:12.550Z,11.27
2023-01-19T09:45:48.124Z,9.82
2023-01-19T09:48:43.811Z,9.45
2023-01-19T09:51:16.690Z,9.63
2023-01-19T09:53:56.288Z,10.57
2023-01-19T09:56:24.136Z,10.32
2023-01-19T09:58:51.471Z,9.73
2023-01-19T10:01:30.369Z,10.40
2023-01-19T10:04:30.393Z,9.73
2023-01-19T10:07:29.117Z,9.75
2023-01-19T10:10:07.472Z,10.30
2023-01-19T10:13:08.948Z,10.25
2023-01-19T10:15:38.324Z,9.90
2023-01-19T10:18:12.692Z,10.75
2023-01-19T10:20:48.937Z,9.35
2023-01-19T10:23:27.818Z,9.02
2023-01-19T10:25:55.412Z,9.48
2023-01-19T10:28:25.348Z,10.20
2023-01-19T10:30:54.235Z,10.52
2023-01-19T10:33:20.682Z,9.60
2023-01-19T10:35:48.724Z,9.50
2023-01-19T10:38:19.782Z,10.00
2023-01-19T10:43:34.955Z,9.13
2023-01-19T10:46:05.973Z,9.57
2023-01-19T10:51:06.448Z,9.55
2023-01-19T10:53:32.985Z,9.77
2023-01-19T10:56:22.916Z,9.15
2023-01-19T10:58:49.388Z,10.50
2023-01-19T11:01:24.921Z,9.02
2023-01-19T11:03:53.332Z,9.93
2023-01-19T11:06:21.053Z,9.52
2023-01-19T11:08:51.216Z,10.65
2023-01-19T11:11:23.214Z,10.47
2023-01-19T11:14:13.912Z,9.82
2023-01-19T11:16:41.158Z,9.48
2023-01-19T11:19:19.640Z,8.55
2023-01-19T11:21:46.050Z,9.88
2023-01-19T11:24:14.737Z,10.13
2023-01-19T11:26:50.304Z,9.85
2023-01-19T11:29:27.306Z,10.00
2023-01-19T11:31:54.914Z,9.70
2023-01-19T11:34:37.368Z,9.02
2023-01-19T11:37:06.418Z,9.13
2023-01-19T11:39:48.369Z,9.38
2023-01-19T11:42:16.043Z,9.30
2023-01-19T11:44:58.774Z,10.25
2023-01-19T11:47:30.400Z,9.32
2023-01-19T11:50:23.518Z,9.07
2023-01-19T11:53:11.452Z,9.75
2023-01-19T11:55:46.941Z,8.80
2023-01-19T11:58:16.572Z,9.10
2023-01-19T12:00:46.242Z,8.10
2023-01-19T12:03:22.802Z,9.25
2023-01-19T12:05:53.033Z,8.45
2023-01-19T12:08:27.812Z,9.53
2023-01-19T12:10:59.225Z,9.00
2023-01-19T12:13:27.370Z,8.23
2023-01-19T12:16:01.051Z,9.10
2023-01-19T12:18:36.883Z,8.68
2023-01-19T12:21:04.328Z,8.52
2023-01-19T12:23:56.321Z,8.18
2023-01-19T12:26:30.733Z,8.52
2023-01-19T12:29:12.041Z,7.88
2023-01-19T12:31:40.646Z,7.82
2023-01-19T12:34:31.105Z,8.07
2023-01-19T12:37:28.689Z,8.00
2023-01-19T12:39:57.123Z,8.02
2023-01-19T12:42:24.494Z,7.43
2023-01-19T12:45:05.654Z,8.32
2023-01-19T12:50:06.846Z,7.65
2023-01-19T12:52:41.037Z,8.13
2023-01-19T12:55:13.520Z,8.05
2023-01-19T12:58:14.557Z,8.02
2023-01-19T13:00:45.445Z,7.97
2023-01-19T13:03:18.129Z,7.75
2023-01-19T13:05:44.556Z,7.68
2023-01-19T13:08:13.610Z,8.55
2023-01-19T13:11:09.580Z,8.20
2023-01-19T13:13:42.237Z,8.48
2023-01-19T13:16:37.422Z,8.68
2023-01-19T13:19:06.878Z,9.13
2023-01-19T13:21:48.031Z,8.05
2023-01-19T13:26:55.033Z,8.50
2023-01-19T13:29:34.484Z,9.48
2023-01-19T13:32:12.717Z,8.65
2023-01-19T13:34:39.069Z,8.98
2023-01-19T13:37:06.232Z,8.48
2023-01-19T13:39:36.989Z,8.48
2023-01-19T13:42:18.465Z,8.30
2023-01-19T13:44:52.296Z,9.80
2023-01-19T13:47:22.573Z,8.20
2023-01-19T13:49:55.558Z,8.37
2023-01-19T13:52:27.509Z,8.38
2023-01-19T13:55:02.508Z,8.15
2023-01-19T13:57:32.223Z,8.32
2023-01-19T14:00:09.538Z,8.70
2023-01-19T14:02:39.314Z,8.00
2023-01-19T14:05:20.036Z,8.43
2023-01-19T14:07:46.660Z,7.85
2023-01-19T14:10:16.568Z,9.02
2023-01-19T14:12:58.501Z,8.27
2023-01-19T14:15:25.652Z,8.98
2023-01-19T14:18:10.467Z,9.18
2023-01-19T14:20:37.735Z,9.10
2023-01-19T14:23:05.316Z,7.90
2023-01-19T14:25:35.168Z,8.68
2023-01-19T14:28:27.790Z,8.30
2023-01-19T14:31:17.280Z,7.85
2023-01-19T14:33:46.862Z,8.30
2023-01-19T14:36:17.884Z,10.38
2023-01-19T14:41:24.306Z,10.83
2023-01-19T14:43:50.746Z,11.10
2023-01-19T14:46:20.728Z,10.55
2023-01-19T14:48:53.247Z,11.25
2023-01-19T14:51:23.336Z,10.02
2023-01-19T14:53:56.368Z,11.50
2023-01-19T14:56:32.580Z,10.82
2023-01-19T14:59:01.446Z,11.20
2023-01-19T15:01:28.632Z,14.40
2023-01-19T15:03:58.566Z,12.93
2023-01-19T15:06:26.345Z,14.18
2023-01-19T15:08:53.463Z,12.02
2023-01-19T15:11:32.705Z,13.07
2023-01-19T15:13:59.811Z,12.27
2023-01-19T15:16:27.736Z,12.32
2023-01-19T15:18:54.381Z,12.82
2023-01-19T15:21:23.691Z,13.10
2023-01-19T15:23:50.496Z,13.20
2023-01-19T15:26:18.917Z,12.45
2023-01-19T15:28:45.868Z,13.05
2023-01-19T15:31:17.908Z,14.25
2023-01-19T15:33:44.801Z,12.55
2023-01-19T15:36:17.931Z,13.52
2023-01-19T15:38:45.527Z,13.07
2023-01-19T15:41:24.043Z,14.35
2023-01-19T15:43:50.885Z,13.77
2023-01-19T15:46:20.605Z,14.55
2023-01-19T15:48:47.971Z,14.40
2023-01-19T15:51:16.598Z,14.43
2023-01-19T15:53:45.174Z,14.20
2023-01-19T15:56:15.190Z,15.20
2023-01-19T15:58:42.901Z,14.68
2023-01-19T16:01:18.033Z,14.93
2023-01-19T16:03:45.172Z,14.48
2023-01-19T16:06:12.939Z,14.40
2023-01-19T16:08:39.965Z,14.60
2023-01-19T16:11:08.688Z,15.95
2023-01-19T16:13:35.210Z,16.20
2023-01-19T16:16:03.710Z,16.42
2023-01-19T16:18:30.436Z,15.48
2023-01-19T16:20:56.831Z,15.35
2023-01-19T16:23:23.239Z,18.10
2023-01-19T16:26:10.453Z,17.25
2023-01-19T16:28:37.633Z,15.25
2023-01-19T16:31:04.606Z,14.70
2023-01-19T16:33:31.056Z,15.95
2023-01-19T16:35:57.481Z,15.82
2023-01-19T16:38:24.014Z,15.95
2023-01-19T16:40:50.425Z,15.82
2023-01-19T16:43:18.202Z,15.48
2023-01-19T16:45:58.034Z,17.10
2023-01-19T16:48:25.104Z,16.58
2023-01-19T16:51:05.828Z,15.75
2023-01-19T16:53:36.880Z,15.07
2023-01-19T16:58:33.883Z,13.97
2023-01-19T17:01:00.413Z,15.23
2023-01-19T17:03:27.091Z,15.75
2023-01-19T17:05:53.549Z,16.23
2023-01-19T17:08:20.646Z,15.63
2023-01-19T17:10:48.082Z,16.13
2023-01-19T17:13:14.764Z,15.35
2023-01-19T17:15:41.157Z,14.95
2023-01-19T17:18:07.576Z,14.77
2023-01-19T17:20:34.098Z,14.45
2023-01-19T17:23:00.542Z,15.77
2023-01-19T17:25:27.037Z,14.38
2023-01-19T17:27:53.436Z,14.32
2023-01-19T17:30:20.348Z,14.35
2023-01-19T17:32:46.787Z,13.93
2023-01-19T17:35:13.219Z,14.10
2023-01-19T17:37:39.616Z,14.90
2023-01-19T17:40:06.613Z,13.85
2023-01-19T17:42:33.005Z,13.63
2023-01-19T17:44:59.434Z,14.35
2023-01-19T17:47:25.974Z,14.50
2023-01-19T17:49:52.435Z,14.60
2023-01-19T17:52:18.867Z,15.13
2023-01-19T17:54:45.251Z,14.38
2023-01-19T17:57:11.649Z,15.38
2023-01-19T17:59:40.865Z,13.52
2023-01-19T18:02:09.171Z,13.68
2023-01-19T18:04:38.511Z,13.50
2023-01-19T18:07:05.007Z,13.10
2023-01-19T18:09:31.536Z,13.63
2023-01-19T18:11:58.164Z,14.32
2023-01-19T18:14:24.589Z,14.52
2023-01-19T18:16:50.989Z,14.40
2023-01-19T18:19:17.388Z,12.90
2023-01-19T18:21:43.789Z,14.10
2023-01-19T18:24:10.185Z,13.40
2023-01-19T18:26:37.945Z,11.95
2023-01-19T18:29:04.842Z,12.05
2023-01-19T18:31:31.428Z,11.95
2023-01-19T18:33:58.006Z,13.30
2023-01-19T18:36:24.511Z,12.88
2023-01-19T18:38:50.923Z,12.52
2023-01-19T18:41:20.396Z,12.75
2023-01-19T18:43:47.641Z,13.18
2023-01-19T18:46:15.076Z,12.23
2023-01-19T18:48:41.682Z,12.38
2023-01-19T18:51:13.178Z,13.35
2023-01-19T18:53:40.139Z,13.13
2023-01-19T18:56:07.232Z,12.27
2023-01-19T18:58:37.128Z,11.95
2023-01-19T19:01:03.665Z,12.02
2023-01-19T19:03:31.002Z,11.25
2023-01-19T19:06:02.442Z,11.93
2023-01-19T19:08:28.875Z,12.30
2023-01-19T19:10:55.311Z,11.68
2023-01-19T19:13:21.867Z,12.20
2023-01-19T19:15:48.311Z,11.52
2023-01-19T19:18:16.206Z,12.23
2023-01-19T19:20:43.446Z,12.45
2023-01-19T19:23:13.188Z,11.85
2023-01-19T19:25:39.586Z,11.43
2023-01-19T19:28:06.440Z,11.55
2023-01-19T19:30:34.491Z,10.90
2023-01-19T19:33:01.213Z,11.60
2023-01-19T19:35:27.707Z,11.90
2023-01-19T19:37:57.414Z,11.73
2023-01-19T19:40:26.197Z,11.32
2023-01-19T19:42:52.732Z,12.10
2023-01-19T19:45:19.464Z,11.82
2023-01-19T19:47:45.993Z,11.82
2023-01-19T19:50:12.812Z,11.25
2023-01-19T19:52:42.294Z,13.10
2023-01-19T19:55:10.152Z,11.18
2023-01-19T19:57:36.811Z,11.68
2023-01-19T20:00:05.160Z,11.75
2023-01-19T20:02:35.667Z,11.70
2023-01-19T20:05:02.311Z,10.73
2023-01-19T20:07:28.837Z,12.65
2023-01-19T20:09:55.347Z,11.98
2023-01-19T20:12:21.939Z,11.77
2023-01-19T20:14:48.367Z,11.35
2023-01-19T20:17:14.799Z,11.68
2023-01-19T20:19:41.196Z,11.48
2023-01-19T20:22:07.641Z,12.75
2023-01-19T20:24:34.094Z,13.02
2023-01-19T20:27:00.510Z,12.20
2023-01-19T20:29:26.941Z,12.60
2023-01-19T20:31:55.187Z,11.82
2023-01-19T20:34:24.613Z,11.43
2023-01-19T20:36:53.372Z,10.65
2023-01-19T20:39:21.125Z,11.18
2023-01-19T20:41:50.087Z,11.13
2023-01-19T20:44:20.278Z,11.73
2023-01-19T20:46:46.903Z,11.13
2023-01-19T20:49:13.391Z,11.73
2023-01-19T20:51:43.413Z,11.70
2023-01-19T20:54:11.303Z,12.67
2023-01-19T20:56:38.111Z,11.27
2023-01-19T20:59:04.554Z,11.38
2023-01-19T21:01:31.118Z,11.93
2023-01-19T21:03:57.636Z,10.40
2023-01-19T21:06:24.904Z,11.60
2023-01-19T21:08:51.807Z,12.05
2023-01-19T21:11:20.869Z,11.02
2023-01-19T21:13:48.612Z,12.40
2023-01-19T21:16:15.705Z,11.27
2023-01-19T21:18:42.126Z,11.68
2023-01-19T21:21:20.762Z,10.77
2023-01-19T21:23:50.996Z,12.90
2023-01-19T21:26:17.699Z,12.07
2023-01-19T21:28:44.232Z,11.77
2023-01-19T21:31:13.199Z,12.85
2023-01-19T21:33:40.712Z,12.25
2023-01-19T21:36:08.391Z,13.68
2023-01-19T21:38:36.524Z,13.18
2023-01-19T21:41:12.457Z,13.48
2023-01-19T21:43:40.897Z,13.27
2023-01-19T21:46:18.582Z,13.63
2023-01-19T21:48:45.913Z,13.00
2023-01-19T21:51:12.589Z,13.60
2023-01-19T21:53:39.590Z,13.57
2023-01-19T21:56:10.391Z,13.95
2023-01-19T21:58:37.299Z,13.23
2023-01-19T22:01:06.973Z,13.30
2023-01-19T22:03:33.601Z,13.55
2023-01-19T22:06:07.805Z,13.07
2023-01-19T22:08:34.314Z,13.68
2023-01-19T22:11:05.462Z,14.80
2023-01-19T22:13:32.733Z,14.73
2023-01-19T22:16:03.578Z,14.50
2023-01-19T22:18:30.325Z,14.82
2023-01-19T22:20:56.765Z,15.95
2023-01-19T22:23:23.193Z,14.50
2023-01-19T22:25:49.600Z,14.68
2023-01-19T22:28:16.025Z,14.88
2023-01-19T22:30:42.803Z,15.90
2023-01-19T22:33:09.276Z,16.58
2023-01-19T22:35:35.656Z,16.02
2023-01-19T22:38:02.116Z,16.65
2023-01-19T22:40:28.494Z,15.57
2023-01-19T22:42:54.897Z,15.50
2023-01-19T22:45:21.767Z,15.68
2023-01-19T22:47:48.198Z,17.13
2023-01-19T22:50:14.855Z,16.30
2023-01-19T22:52:42.430Z,16.88
2023-01-19T22:55:09.302Z,17.40
2023-01-19T22:57:36.588Z,17.45
2023-01-19T23:00:09.189Z,16.77
2023-01-19T23:02:35.664Z,17.48
2023-01-19T23:05:02.105Z,17.80
2023-01-19T23:07:28.520Z,17.40
2023-01-19T23:09:54.932Z,17.60
2023-01-19T23:12:21.341Z,16.63
2023-01-19T23:14:47.768Z,16.02
2023-01-19T23:17:14.183Z,16.90
2023-01-19T23:19:40.603Z,16.48
2023-01-19T23:22:07.018Z,15.80
2023-01-19T23:24:33.420Z,17.33
2023-01-19T23:27:01.493Z,17.98
2023-01-19T23:29:27.911Z,16.65
2023-01-19T23:31:55.913Z,16.77
2023-01-19T23:34:22.312Z,17.35
2023-01-19T23:36:48.710Z,16.13
2023-01-19T23:39:21.177Z,15.85
2023-01-19T23:41:48.175Z,17.40
2023-01-19T23:44:15.056Z,18.90
2023-01-19T23:46:41.463Z,17.02
2023-01-19T23:49:07.908Z,16.65
2023-01-19T23:51:34.830Z,17.88
2023-01-19T23:54:01.977Z,16.83
2023-01-19T23:56:31.751Z,17.35
2023-01-19T23:59:03.744Z,15.38
